createdAt,value
2022-11-15T00:00:52.705Z,86.49
2022-11-15T00:03:37.908Z,86.58
2022-11-15T00:09:07.455Z,86.82
2022-11-15T00:11:52.795Z,86.74
2022-11-15T00:14:37.912Z,86.90
2022-11-15T00:17:22.718Z,86.98
2022-11-15T00:20:08.139Z,86.99
2022-11-15T00:22:53.214Z,87.24
2022-11-15T00:25:37.976Z,87.28
2022-11-15T00:28:22.864Z,87.42
2022-11-15T00:31:12.199Z,87.55
2022-11-15T00:33:56.806Z,87.80
2022-11-15T00:36:41.741Z,88.14
2022-11-15T00:39:26.397Z,88.58
2022-11-15T00:42:11.344Z,89.48
2022-11-15T00:44:56.110Z,89.85
2022-11-15T00:47:41.043Z,89.97
2022-11-15T00:50:25.897Z,90.53
2022-11-15T00:53:11.153Z,90.81
2022-11-15T00:55:56.242Z,91.82
2022-11-15T00:58:41.076Z,91.68
2022-11-15T01:01:26.018Z,91.76
2022-11-15T01:04:10.753Z,91.84
2022-11-15T01:06:55.580Z,91.82
2022-11-15T01:09:40.378Z,92.03
2022-11-15T01:12:25.175Z,91.94
2022-11-15T01:15:10.161Z,92.01
2022-11-15T01:17:55.788Z,92.00
2022-11-15T01:20:44.513Z,92.00
2022-11-15T01:26:16.272Z,91.44
2022-11-15T01:29:01.165Z,91.60
2022-11-15T01:31:45.904Z,91.54
2022-11-15T01:42:44.768Z,91.27
2022-11-15T01:45:29.709Z,91.19
2022-11-15T01:48:14.543Z,90.46
2022-11-15T01:59:22.824Z,90.23
2022-11-15T02:02:08.037Z,89.82
2022-11-15T02:04:53.518Z,89.30
2022-11-15T02:07:38.980Z,89.18
2022-11-15T02:10:25.227Z,89.04
2022-11-15T02:13:10.830Z,89.18
2022-11-15T02:16:14.308Z,89.18
2022-11-15T02:19:34.442Z,89.20
2022-11-15T02:22:42.609Z,89.10
2022-11-15T02:26:04.857Z,88.86
2022-11-15T02:29:01.196Z,88.88
2022-11-15T02:32:13.450Z,88.96
2022-11-15T02:35:04.094Z,88.85
2022-11-15T02:40:59.864Z,88.80
2022-11-15T02:44:00.292Z,88.81
2022-11-15T02:47:13.633Z,88.85
2022-11-15T02:50:08.081Z,88.90
2022-11-15T02:52:53.135Z,89.01
2022-11-15T02:55:42.306Z,88.91
2022-11-15T02:58:59.029Z,89.00
2022-11-15T03:01:50.060Z,88.67
2022-11-15T03:04:55.970Z,88.85
2022-11-15T03:08:02.693Z,89.09
2022-11-15T03:14:15.107Z,88.81
2022-11-15T03:17:19.977Z,88.86
2022-11-15T03:22:53.492Z,88.84
2022-11-15T03:25:42.873Z,88.81
2022-11-15T03:31:38.976Z,88.68
2022-11-15T03:34:30.803Z,88.79
2022-11-15T03:37:18.301Z,88.82
2022-11-15T03:43:21.210Z,88.54
2022-11-15T03:49:24.300Z,88.73
2022-11-15T03:52:11.453Z,88.70
2022-11-15T04:05:56.801Z,88.72
2022-11-15T04:16:55.548Z,88.68
2022-11-15T04:19:58.956Z,88.68
2022-11-15T04:26:11.136Z,88.34
2022-11-15T04:31:59.926Z,88.09
2022-11-15T04:34:44.843Z,87.95
2022-11-15T04:37:29.571Z,87.85
2022-11-15T04:45:49.175Z,87.67
2022-11-15T04:48:34.048Z,87.01
2022-11-15T04:56:49.108Z,87.23
2022-11-15T04:59:33.803Z,87.36
2022-11-15T05:02:18.507Z,87.28
2022-11-15T05:05:03.335Z,87.05
2022-11-15T05:10:32.868Z,87.15
2022-11-15T05:13:18.236Z,87.08
2022-11-15T05:16:03.471Z,87.16
2022-11-15T05:18:52.052Z,86.70
2022-11-15T05:21:37.260Z,86.54
2022-11-15T05:24:22.080Z,86.87
2022-11-15T05:27:06.817Z,86.99
2022-11-15T05:29:51.678Z,87.43
2022-11-15T05:32:37.181Z,87.65
2022-11-15T05:35:35.308Z,88.20
2022-11-15T05:38:20.399Z,88.44
2022-11-15T05:43:51.272Z,89.37
2022-11-15T05:49:25.357Z,90.01
2022-11-15T05:52:12.784Z,90.85
2022-11-15T06:00:29.142Z,92.82
2022-11-15T06:03:15.079Z,92.75
2022-11-15T06:05:59.861Z,93.28
2022-11-15T06:08:44.820Z,93.64
2022-11-15T06:11:29.588Z,93.74
2022-11-15T06:14:14.352Z,94.02
2022-11-15T06:19:43.964Z,94.42
2022-11-15T06:22:28.770Z,94.56
2022-11-15T06:25:13.617Z,94.79
2022-11-15T06:27:59.877Z,94.77
2022-11-15T06:30:47.003Z,94.61
2022-11-15T06:33:35.805Z,94.13
2022-11-15T06:36:21.590Z,93.88
2022-11-15T06:39:06.877Z,93.96
2022-11-15T06:41:51.725Z,93.80
2022-11-15T06:44:36.545Z,93.80
2022-11-15T06:50:06.553Z,93.38
2022-11-15T06:55:36.765Z,93.27
2022-11-15T06:58:22.113Z,93.42
2022-11-15T07:01:10.408Z,93.48
2022-11-15T07:03:55.495Z,93.21
2022-11-15T07:09:24.963Z,92.99
2022-11-15T07:14:54.439Z,92.92
2022-11-15T07:20:24.159Z,93.06
2022-11-15T07:23:09.126Z,92.51
2022-11-15T07:25:53.900Z,92.86
2022-11-15T07:28:39.321Z,92.86
2022-11-15T07:34:10.751Z,92.03
2022-11-15T07:36:55.600Z,91.77
2022-11-15T07:42:43.788Z,90.79
2022-11-15T07:45:29.569Z,90.18
2022-11-15T07:48:14.705Z,89.76
2022-11-15T07:50:59.527Z,88.93
2022-11-15T07:53:45.024Z,87.87
2022-11-15T07:56:30.227Z,86.77
2022-11-15T07:59:15.100Z,86.16
2022-11-15T08:02:00.225Z,85.82
2022-11-15T08:04:45.316Z,85.46
2022-11-15T08:07:31.596Z,85.14
2022-11-15T08:10:19.924Z,84.62
2022-11-15T08:13:09.586Z,84.07
2022-11-15T08:18:43.581Z,84.06
2022-11-15T08:21:28.398Z,82.95
2022-11-15T08:26:58.182Z,82.37
2022-11-15T08:29:46.388Z,82.49
2022-11-15T08:32:32.221Z,82.33
2022-11-15T08:35:17.682Z,81.59
2022-11-15T08:38:02.314Z,80.99
2022-11-15T08:40:47.307Z,81.36
2022-11-15T08:43:32.400Z,81.83
2022-11-15T08:46:19.144Z,81.06
2022-11-15T08:54:33.901Z,80.72
2022-11-15T09:02:49.353Z,84.30
2022-11-15T09:05:36.986Z,84.29
2022-11-15T09:11:27.431Z,83.98
2022-11-15T09:14:13.919Z,83.92
2022-11-15T09:16:59.872Z,83.83
2022-11-15T09:22:29.950Z,83.21
2022-11-15T09:27:59.569Z,82.58
2022-11-15T09:30:44.676Z,82.17
2022-11-15T09:33:30.224Z,79.58
2022-11-15T09:36:16.044Z,78.91
2022-11-15T09:42:23.382Z,76.61
2022-11-15T09:45:21.538Z,75.65
2022-11-15T09:48:36.976Z,75.50
2022-11-15T09:51:28.882Z,74.67
2022-11-15T09:59:53.705Z,73.00
2022-11-15T10:05:00.940Z,71.50
2022-11-15T10:08:14.422Z,71.85
2022-11-15T10:10:45.323Z,72.41
2022-11-15T10:13:24.824Z,70.96
2022-11-15T10:15:54.257Z,70.87
2022-11-15T10:19:05.801Z,71.01
2022-11-15T10:26:52.767Z,70.68
2022-11-15T10:29:27.160Z,69.51
2022-11-15T10:34:24.148Z,68.85
2022-11-15T10:41:51.507Z,69.11
2022-11-15T10:44:20.014Z,68.65
2022-11-15T10:47:21.203Z,67.08
2022-11-15T10:50:25.808Z,66.56
2022-11-15T10:52:52.414Z,67.17
2022-11-15T10:55:18.724Z,67.87
2022-11-15T11:00:20.073Z,65.93
2022-11-15T11:03:22.043Z,64.47
2022-11-15T11:05:48.404Z,64.27
2022-11-15T11:08:14.715Z,63.98
2022-11-15T11:10:58.562Z,63.38
2022-11-15T11:16:14.254Z,63.85
2022-11-15T11:19:01.972Z,63.02
2022-11-15T11:26:58.351Z,61.44
2022-11-15T11:29:54.814Z,61.52
2022-11-15T11:32:31.848Z,61.71
2022-11-15T11:35:18.499Z,61.82
2022-11-15T11:37:56.565Z,60.61
2022-11-15T11:40:41.996Z,60.45
2022-11-15T11:43:24.276Z,59.13
2022-11-15T11:48:38.175Z,58.94
2022-11-15T11:54:01.091Z,60.05
2022-11-15T11:56:34.283Z,58.25
2022-11-15T12:01:46.198Z,58.13
2022-11-15T12:04:19.971Z,57.95
2022-11-15T12:07:04.366Z,56.94
2022-11-15T12:12:12.509Z,56.91
2022-11-15T12:15:05.193Z,57.46
2022-11-15T12:17:33.110Z,56.99
2022-11-15T12:20:08.722Z,57.07
2022-11-15T12:30:22.332Z,57.31
2022-11-15T12:33:02.205Z,57.23
2022-11-15T12:35:40.606Z,56.60
2022-11-15T12:38:11.738Z,57.18
2022-11-15T12:43:25.650Z,56.34
2022-11-15T12:48:18.298Z,56.91
2022-11-15T12:50:56.642Z,55.67
2022-11-15T12:53:26.060Z,55.12
2022-11-15T12:56:13.843Z,54.34
2022-11-15T13:01:08.397Z,54.92
2022-11-15T13:03:35.299Z,55.49
2022-11-15T13:06:04.921Z,56.02
2022-11-15T13:08:44.759Z,55.98
2022-11-15T13:13:56.275Z,55.70
2022-11-15T13:16:22.738Z,55.59
2022-11-15T13:18:55.549Z,56.18
2022-11-15T13:21:43.222Z,56.47
2022-11-15T13:26:40.988Z,57.38
2022-11-15T13:29:17.155Z,56.94
2022-11-15T13:31:44.764Z,57.66
2022-11-15T13:39:54.429Z,58.58
2022-11-15T13:42:22.094Z,58.82
2022-11-15T13:49:58.602Z,59.00
2022-11-15T13:52:31.458Z,59.31
2022-11-15T13:57:40.168Z,59.94
2022-11-15T14:00:25.523Z,59.25
2022-11-15T14:02:52.650Z,60.54
2022-11-15T14:05:25.153Z,60.61
2022-11-15T14:10:33.583Z,60.58
2022-11-15T14:13:01.297Z,61.25
2022-11-15T14:15:33.973Z,61.99
2022-11-15T14:18:00.946Z,61.87
2022-11-15T14:50:21.954Z,47.21
2022-11-15T14:52:49.483Z,48.17
2022-11-15T14:56:07.792Z,48.16
2022-11-15T15:00:20.256Z,47.01
2022-11-15T15:02:48.164Z,46.49
2022-11-15T15:05:26.629Z,46.71
2022-11-15T15:07:54.162Z,46.61
2022-11-15T15:13:16.429Z,47.79
2022-11-15T15:22:31.315Z,43.06
2022-11-15T15:24:57.908Z,45.52
2022-11-15T15:27:24.311Z,47.69
2022-11-15T15:29:50.665Z,49.39
2022-11-15T15:32:17.346Z,51.05
2022-11-15T15:34:43.652Z,51.83
2022-11-15T15:37:23.873Z,53.13
2022-11-15T15:39:55.477Z,54.34
2022-11-15T15:42:22.990Z,54.96
2022-11-15T15:44:52.185Z,54.86
2022-11-15T15:47:23.558Z,55.88
2022-11-15T15:49:51.333Z,55.93
2022-11-15T15:52:17.961Z,56.08
2022-11-15T15:54:44.299Z,56.84
2022-11-15T15:57:13.515Z,56.74
2022-11-15T15:59:40.117Z,56.94
2022-11-15T16:02:06.937Z,57.08
2022-11-15T16:04:33.245Z,57.06
2022-11-15T16:07:01.276Z,57.88
2022-11-15T16:09:46.614Z,58.13
2022-11-15T16:12:12.941Z,57.60
2022-11-15T16:14:39.239Z,58.37
2022-11-15T16:17:06.101Z,58.28
2022-11-15T16:19:32.416Z,58.43
2022-11-15T16:21:58.734Z,58.61
2022-11-15T16:24:25.062Z,58.37
2022-11-15T16:26:52.493Z,58.38
2022-11-15T16:29:18.805Z,58.74
2022-11-15T16:31:45.125Z,58.44
2022-11-15T16:34:11.515Z,58.63
2022-11-15T16:36:37.892Z,58.55
2022-11-15T16:39:04.995Z,58.86
2022-11-15T16:41:31.841Z,59.45
2022-11-15T16:43:58.165Z,59.37
2022-11-15T16:46:27.423Z,59.01
2022-11-15T16:48:54.164Z,59.55
2022-11-15T16:51:20.784Z,59.55
2022-11-15T16:53:48.790Z,60.47
2022-11-15T16:56:21.720Z,60.04
2022-11-15T16:58:48.092Z,59.90
2022-11-15T17:01:21.791Z,60.16
2022-11-15T17:03:48.176Z,60.24
2022-11-15T17:06:15.146Z,60.21
2022-11-15T17:08:41.631Z,60.18
2022-11-15T17:11:08.807Z,61.05
2022-11-15T17:13:35.127Z,60.54
2022-11-15T17:16:06.810Z,60.96
2022-11-15T17:18:34.743Z,60.83
2022-11-15T17:21:06.150Z,60.64
2022-11-15T17:23:33.656Z,60.94
2022-11-15T17:26:28.264Z,60.90
2022-11-15T17:28:55.289Z,61.29
2022-11-15T17:31:21.610Z,61.52
2022-11-15T17:33:47.921Z,61.68
2022-11-15T17:36:14.453Z,61.60
2022-11-15T17:38:44.174Z,61.33
2022-11-15T17:41:14.435Z,61.52
2022-11-15T17:43:40.821Z,61.68
2022-11-15T17:46:11.456Z,60.91
2022-11-15T17:48:38.203Z,61.24
2022-11-15T17:51:07.846Z,61.28
2022-11-15T17:53:37.312Z,60.31
2022-11-15T17:56:05.178Z,60.82
2022-11-15T17:58:32.589Z,61.18
2022-11-15T18:01:09.684Z,61.29
2022-11-15T18:03:37.309Z,60.85
2022-11-15T18:06:08.339Z,60.95
2022-11-15T18:08:38.957Z,60.87
2022-11-15T18:11:10.729Z,60.70
2022-11-15T18:13:38.385Z,60.54
2022-11-15T18:16:10.710Z,61.27
2022-11-15T18:18:37.347Z,61.23
2022-11-15T18:21:21.683Z,60.77
2022-11-15T18:23:49.347Z,61.36
2022-11-15T18:26:17.375Z,61.45
2022-11-15T18:28:45.682Z,61.36
2022-11-15T18:31:24.379Z,60.80
2022-11-15T18:33:52.132Z,61.21
2022-11-15T18:36:29.658Z,60.99
2022-11-15T18:38:57.998Z,60.35
2022-11-15T18:41:28.167Z,60.39
2022-11-15T18:43:56.238Z,60.71
2022-11-15T18:46:24.875Z,61.13
2022-11-15T18:48:52.475Z,62.05
2022-11-15T18:51:25.184Z,62.07
2022-11-15T18:53:56.567Z,62.52
2022-11-15T18:56:24.433Z,62.59
2022-11-15T18:58:54.028Z,62.88
2022-11-15T19:01:23.253Z,63.50
2022-11-15T19:03:51.645Z,63.37
2022-11-15T19:06:26.676Z,63.34
2022-11-15T19:08:56.240Z,63.36
2022-11-15T19:11:28.539Z,63.37
2022-11-15T19:13:56.488Z,63.40
2022-11-15T19:16:23.692Z,63.33
2022-11-15T19:18:58.219Z,63.02
2022-11-15T19:21:26.030Z,63.12
2022-11-15T19:23:54.071Z,63.16
2022-11-15T19:26:22.943Z,64.15
2022-11-15T19:28:57.452Z,63.85
2022-11-15T19:31:25.182Z,64.26
2022-11-15T19:33:52.739Z,64.52
2022-11-15T19:36:26.682Z,64.34
2022-11-15T19:38:55.226Z,64.90
2022-11-15T19:41:23.785Z,65.27
2022-11-15T19:43:50.936Z,65.10
2022-11-15T19:46:20.406Z,65.16
2022-11-15T19:48:47.623Z,66.12
2022-11-15T19:51:16.729Z,66.69
2022-11-15T19:53:43.514Z,67.55
2022-11-15T19:56:16.198Z,67.89
2022-11-15T19:58:43.143Z,68.41
2022-11-15T20:01:25.056Z,68.25
2022-11-15T20:03:54.509Z,69.61
2022-11-15T20:06:25.011Z,70.41
2022-11-15T20:08:51.817Z,70.13
2022-11-15T20:11:18.895Z,70.07
2022-11-15T20:13:45.774Z,70.68
2022-11-15T20:16:21.092Z,70.77
2022-11-15T20:18:48.812Z,71.16
2022-11-15T20:21:15.415Z,71.60
2022-11-15T20:23:41.987Z,72.56
2022-11-15T20:26:09.604Z,72.77
2022-11-15T20:28:37.672Z,72.97
2022-11-15T20:31:04.584Z,73.56
2022-11-15T20:33:31.339Z,73.32
2022-11-15T20:35:57.681Z,74.29
2022-11-15T20:38:24.115Z,73.08
2022-11-15T20:40:56.006Z,73.46
2022-11-15T20:43:25.339Z,73.71
2022-11-15T20:45:51.637Z,73.10
2022-11-15T20:48:18.099Z,73.75
2022-11-15T20:50:46.510Z,74.00
2022-11-15T20:53:15.952Z,74.02
2022-11-15T20:55:48.026Z,73.95
2022-11-15T20:58:15.735Z,74.78
2022-11-15T21:00:43.173Z,73.85
2022-11-15T21:03:09.668Z,74.43
2022-11-15T21:05:40.801Z,74.87
2022-11-15T21:08:07.769Z,75.21
2022-11-15T21:10:52.818Z,74.59
2022-11-15T21:13:19.924Z,75.13
2022-11-15T21:15:47.049Z,74.63
2022-11-15T21:18:13.930Z,74.56
2022-11-15T21:20:40.462Z,74.80
2022-11-15T21:23:06.806Z,75.46
2022-11-15T21:25:33.804Z,75.70
2022-11-15T21:28:00.321Z,74.64
2022-11-15T21:30:27.319Z,74.61
2022-11-15T21:32:53.751Z,74.72
2022-11-15T21:35:20.072Z,74.33
2022-11-15T21:37:47.816Z,74.63
2022-11-15T21:40:16.140Z,74.17
2022-11-15T21:42:42.467Z,73.63
2022-11-15T21:45:09.236Z,73.69
2022-11-15T21:47:35.539Z,73.61
2022-11-15T21:50:01.871Z,73.78
2022-11-15T21:52:28.250Z,74.24
2022-11-15T21:54:54.560Z,74.29
2022-11-15T21:57:21.210Z,74.14
2022-11-15T22:00:06.387Z,73.66
2022-11-15T22:02:32.742Z,74.22
2022-11-15T22:04:59.043Z,73.67
2022-11-15T22:07:25.439Z,74.72
2022-11-15T22:09:51.810Z,74.15
2022-11-15T22:12:18.169Z,74.63
2022-11-15T22:14:44.475Z,74.91
2022-11-15T22:17:11.141Z,74.85
2022-11-15T22:19:51.598Z,75.74
2022-11-15T22:22:18.925Z,75.92
2022-11-15T22:24:45.213Z,76.08
2022-11-15T22:27:11.526Z,76.50
2022-11-15T22:29:37.821Z,75.66
2022-11-15T22:32:04.540Z,75.78
2022-11-15T22:34:30.840Z,76.18
2022-11-15T22:39:43.448Z,75.89
2022-11-15T22:42:09.775Z,76.45
2022-11-15T22:44:36.071Z,76.68
2022-11-15T22:47:02.476Z,76.65
2022-11-15T22:49:28.892Z,76.47
2022-11-15T22:51:55.190Z,76.80
2022-11-15T22:54:21.498Z,77.21
2022-11-15T22:56:47.837Z,77.14
2022-11-15T22:59:14.140Z,77.55
2022-11-15T23:01:40.487Z,76.83
2022-11-15T23:04:06.829Z,77.20
2022-11-15T23:06:33.147Z,77.05
2022-11-15T23:08:59.467Z,78.04
2022-11-15T23:11:44.441Z,77.89
2022-11-15T23:14:10.926Z,77.15
2022-11-15T23:16:37.343Z,77.80
2022-11-15T23:19:06.448Z,78.26
2022-11-15T23:21:53.823Z,78.32
2022-11-15T23:24:20.623Z,78.46
2022-11-15T23:26:49.788Z,78.42
2022-11-15T23:29:17.690Z,78.81
2022-11-15T23:32:02.992Z,78.67
2022-11-15T23:34:35.500Z,79.20
2022-11-15T23:37:01.815Z,79.45
2022-11-15T23:39:28.444Z,79.11
2022-11-15T23:41:54.996Z,79.66
2022-11-15T23:44:21.547Z,79.87
2022-11-15T23:46:47.898Z,80.00
2022-11-15T23:49:14.332Z,79.84
2022-11-15T23:51:40.956Z,80.51
2022-11-15T23:54:07.361Z,80.08
2022-11-15T23:56:34.472Z,81.13
2022-11-15T23:59:00.826Z,80.78
